Time;durP1;ratioP1;P1;durP2;ratioP2;P2;SDS_P1;SDS_P2;PMS_P1;PMS_P2;Temp;Humidity;BMP_temperature;BMP_pressure;BME280_temperature;BME280_humidity;BME280_pressure;Samples;Min_cycle;Max_cycle;Signal;HPM_P1;HPM_P2
2022/04/26 03:38:32;;;;;;;9.63;4.10;;;7.10;99.90;;;;;;5135499;27;20406;-75
2022/04/26 03:40:58;;;;;;;13.30;4.90;;;7.00;99.90;;;;;;5134019;27;20047;-75
2022/04/26 03:43:24;;;;;;;10.43;4.40;;;7.00;99.90;;;;;;5135548;27;20428;-75
2022/04/26 03:45:49;;;;;;;13.33;4.03;;;7.00;99.90;;;;;;5133540;27;20104;-75
2022/04/26 03:48:15;;;;;;;13.70;4.43;;;7.00;99.90;;;;;;5135267;27;20100;-75
2022/04/26 03:50:41;;;;;;;16.40;5.17;;;7.00;99.90;;;;;;5135042;27;20082;-76
2022/04/26 03:53:06;;;;;;;13.60;5.07;;;7.00;99.90;;;;;;5135150;27;20039;-76
2022/04/26 03:55:32;;;;;;;15.80;5.40;;;7.00;99.90;;;;;;5133997;27;20046;-76
2022/04/26 03:57:58;;;;;;;12.53;4.63;;;7.00;99.90;;;;;;5133613;27;20035;-76
2022/04/26 04:00:24;;;;;;;12.03;4.40;;;7.00;99.90;;;;;;5135338;27;20047;-76
2022/04/26 04:02:50;;;;;;;14.40;4.80;;;7.00;99.90;;;;;;5133502;27;20043;-75
2022/04/26 04:05:16;;;;;;;15.17;5.10;;;7.00;99.90;;;;;;5134830;27;20107;-75
2022/04/26 04:07:41;;;;;;;12.90;4.83;;;7.00;99.90;;;;;;5134639;27;20050;-75
2022/04/26 04:10:07;;;;;;;13.70;5.10;;;7.00;99.90;;;;;;5135149;27;20065;-75
2022/04/26 04:12:33;;;;;;;12.88;4.30;;;6.90;99.90;;;;;;5151079;27;20502;-75
2022/04/26 04:14:59;;;;;;;17.27;4.87;;;6.90;99.90;;;;;;5133469;27;20089;-75
2022/04/26 04:17:24;;;;;;;11.93;5.40;;;6.90;99.90;;;;;;5134736;27;20046;-75
2022/04/26 04:19:50;;;;;;;15.43;5.23;;;6.90;99.90;;;;;;5134335;27;20497;-75
2022/04/26 04:22:15;;;;;;;14.87;5.10;;;6.90;99.90;;;;;;5134655;27;20097;-76
2022/04/26 04:24:41;;;;;;;14.93;4.50;;;6.90;99.90;;;;;;5134443;27;20047;-75
2022/04/26 04:27:09;;;;;;;12.10;4.50;;;7.00;99.90;;;;;;5134125;27;20046;-76
2022/04/26 04:29:34;;;;;;;16.17;5.40;;;6.90;99.90;;;;;;5133502;27;20058;-76
2022/04/26 04:32:01;;;;;;;14.63;4.73;;;7.00;99.90;;;;;;5134158;27;20039;-76
2022/04/26 04:34:27;;;;;;;14.43;4.47;;;7.00;99.90;;;;;;5134243;27;20498;-75
2022/04/26 04:36:52;;;;;;;18.47;4.90;;;7.00;99.90;;;;;;5133084;27;20043;-76
2022/04/26 04:39:23;;;;;;;15.57;4.63;;;7.00;99.90;;;;;;5133124;27;20043;-75
2022/04/26 04:41:49;;;;;;;17.98;4.90;;;7.00;99.90;;;;;;5134143;27;20555;-75
2022/04/26 04:44:15;;;;;;;18.75;4.85;;;7.10;99.90;;;;;;5133280;27;20039;-75
2022/04/26 04:46:41;;;;;;;14.80;4.60;;;7.10;99.90;;;;;;5133786;27;20059;-75
2022/04/26 04:49:07;;;;;;;15.07;4.73;;;7.10;99.90;;;;;;5132892;27;20403;-75
2022/04/26 04:51:32;;;;;;;12.87;4.67;;;7.10;99.90;;;;;;5132879;27;20130;-75
2022/04/26 04:53:58;;;;;;;16.23;4.50;;;7.20;99.90;;;;;;5132649;27;20048;-75
2022/04/26 04:56:26;;;;;;;13.43;4.60;;;7.30;99.90;;;;;;5132480;27;20466;-76
2022/04/26 04:58:52;;;;;;;17.30;4.78;;;7.30;99.90;;;;;;5133906;27;20051;-76
2022/04/26 05:01:18;;;;;;;16.08;4.82;;;7.40;99.90;;;;;;5134138;27;20099;-76
2022/04/26 05:03:44;;;;;;;14.33;5.13;;;7.30;99.90;;;;;;5134085;27;20039;-76
2022/04/26 05:06:14;;;;;;;14.43;4.90;;;7.40;99.90;;;;;;5133672;27;20487;-76
2022/04/26 05:08:40;;;;;;;12.35;4.80;;;7.40;99.90;;;;;;5132786;28;20047;-75
2022/04/26 05:11:06;;;;;;;13.45;4.65;;;7.50;99.90;;;;;;5133545;27;20035;-77
2022/04/26 05:13:32;;;;;;;20.48;5.15;;;7.50;99.90;;;;;;5132936;28;20054;-74
2022/04/26 05:15:58;;;;;;;14.18;4.65;;;7.50;99.90;;;;;;5133530;27;20047;-74
2022/04/26 05:18:23;;;;;;;12.87;5.63;;;7.60;99.90;;;;;;5133564;28;20043;-74
2022/04/26 05:20:49;;;;;;;13.50;5.40;;;7.60;99.90;;;;;;5133718;28;20035;-75
2022/04/26 05:25:59;;;;;;;11.13;4.60;;;7.80;99.90;;;;;;5133543;28;20054;-76
2022/04/26 05:28:25;;;;;;;14.07;4.63;;;7.80;99.90;;;;;;5133555;28;20039;-78
2022/04/26 05:30:54;;;;;;;14.27;4.20;;;7.90;99.90;;;;;;5132245;28;20074;-76
2022/04/26 05:33:21;;;;;;;9.48;4.20;;;7.90;99.90;;;;;;5132533;28;20054;-76
2022/04/26 05:35:48;;;;;;;11.63;5.00;;;8.00;99.90;;;;;;5133712;27;20051;-78
2022/04/26 05:38:15;;;;;;;14.52;5.50;;;8.10;99.90;;;;;;5133355;27;20043;-77
2022/04/26 05:40:41;;;;;;;13.48;5.10;;;8.20;99.90;;;;;;5133878;27;20047;-79
2022/04/26 05:43:06;;;;;;;13.68;4.65;;;8.30;99.90;;;;;;5133059;28;20537;-73
2022/04/26 05:45:33;;;;;;;14.27;4.55;;;8.40;99.90;;;;;;5133365;27;20066;-74
2022/04/26 05:47:58;;;;;;;14.47;4.40;;;8.60;99.90;;;;;;5133275;27;20491;-74
2022/04/26 05:50:24;;;;;;;13.27;4.07;;;9.10;99.90;;;;;;5132403;28;20051;-75
2022/04/26 05:52:52;;;;;;;11.30;3.70;;;10.10;99.90;;;;;;5133327;28;20386;-75
2022/04/26 05:55:18;;;;;;;10.73;3.53;;;11.20;99.90;;;;;;5133705;27;20051;-75
2022/04/26 05:57:44;;;;;;;11.50;3.50;;;11.70;99.90;;;;;;5137789;27;20594;-75
2022/04/26 06:00:12;;;;;;;11.73;3.30;;;;;;;;;;5137032;27;20752;-75
2022/04/26 06:02:38;;;;;;;14.23;4.23;;;14.20;99.90;;;;;;5137540;27;20628;-76
2022/04/26 06:05:04;;;;;;;13.57;3.80;;;14.20;99.90;;;;;;5136869;27;20764;-75
2022/04/26 06:07:30;;;;;;;12.20;3.63;;;14.60;99.90;;;;;;5137402;27;20275;-75
2022/04/26 06:09:56;;;;;;;10.10;3.77;;;14.10;99.90;;;;;;5137225;27;20559;-75
2022/04/26 06:12:26;;;;;;;12.90;4.17;;;13.70;99.90;;;;;;5136649;27;20320;-75
2022/04/26 06:14:53;;;;;;;11.10;3.77;;;13.50;99.90;;;;;;5137300;27;20057;-75
2022/04/26 06:17:19;;;;;;;10.57;3.23;;;13.30;99.90;;;;;;5135614;27;20693;-75
2022/04/26 06:19:45;;;;;;;13.30;4.30;;;13.30;99.90;;;;;;5137494;27;20349;-75
2022/04/26 06:22:11;;;;;;;7.30;3.17;;;;;;;;;;5136912;27;20039;-75
2022/04/26 06:24:36;;;;;;;8.87;4.03;;;15.20;99.90;;;;;;5136991;27;20108;-75
2022/04/26 06:27:02;;;;;;;14.03;4.30;;;15.50;95.70;;;;;;5135686;27;20537;-76
2022/04/26 06:29:28;;;;;;;11.73;3.50;;;16.10;72.00;;;;;;5137070;27;20133;-75
2022/04/26 06:31:54;;;;;;;11.67;4.07;;;16.40;82.80;;;;;;5137225;27;20054;-75
2022/04/26 06:34:20;;;;;;;10.60;3.57;;;17.10;77.00;;;;;;5136595;27;20625;-76
2022/04/26 06:36:46;;;;;;;13.13;3.30;;;17.50;79.60;;;;;;5136740;27;20091;-75
2022/04/26 06:39:11;;;;;;;8.53;3.53;;;18.10;66.60;;;;;;5135463;27;20047;-76
2022/04/26 06:41:37;;;;;;;9.47;4.00;;;18.00;60.30;;;;;;5136878;27;20039;-75
2022/04/26 06:44:03;;;;;;;12.47;4.30;;;18.20;60.90;;;;;;5136408;27;20524;-75
2022/04/26 06:46:29;;;;;;;8.37;4.07;;;18.20;59.10;;;;;;5136211;27;20054;-75
2022/04/26 06:48:58;;;;;;;8.80;3.53;;;18.30;58.30;;;;;;5136709;27;20043;-76
2022/04/26 06:51:24;;;;;;;10.53;3.47;;;17.20;58.60;;;;;;5136459;27;20077;-75
2022/04/26 06:53:51;;;;;;;9.77;3.53;;;16.20;58.70;;;;;;5136540;27;20082;-75
2022/04/26 06:56:17;;;;;;;11.00;3.90;;;15.20;61.30;;;;;;5136207;27;20047;-75
2022/04/26 06:58:43;;;;;;;9.40;3.83;;;14.50;65.40;;;;;;5136479;27;20138;-75
2022/04/26 07:01:09;;;;;;;14.57;3.20;;;;;;;;;;5136251;27;20079;-75
2022/04/26 07:03:35;;;;;;;9.87;3.30;;;;;;;;;;5136174;27;20351;-75
2022/04/26 07:06:00;;;;;;;9.87;3.47;;;12.80;74.90;;;;;;5135371;27;20753;-75
2022/04/26 07:08:26;;;;;;;11.60;3.63;;;12.80;76.70;;;;;;5134247;27;20316;-75
2022/04/26 07:10:52;;;;;;;11.33;3.63;;;12.40;79.40;;;;;;5136244;27;20050;-75
2022/04/26 07:13:19;;;;;;;13.93;2.97;;;12.80;83.30;;;;;;5135728;27;20070;-75
2022/04/26 07:15:45;;;;;;;12.83;4.30;;;14.30;94.50;;;;;;5134884;27;20126;-75
2022/04/26 07:18:12;;;;;;;10.90;3.07;;;15.80;72.20;;;;;;5135984;27;20363;-75
2022/04/26 07:20:39;;;;;;;7.80;3.30;;;17.10;66.70;;;;;;5136178;27;20096;-75
2022/04/26 07:23:04;;;;;;;8.13;3.10;;;18.20;58.50;;;;;;5135776;27;20326;-75
2022/04/26 07:25:30;;;;;;;8.87;2.70;;;18.80;57.40;;;;;;5135610;27;20035;-76
2022/04/26 07:27:56;;;;;;;11.27;2.80;;;19.10;54.50;;;;;;5135849;27;20043;-75
2022/04/26 07:30:22;;;;;;;5.67;2.70;;;19.50;53.30;;;;;;5134671;27;20046;-75
2022/04/26 07:35:32;;;;;;;9.37;2.93;;;19.80;49.20;;;;;;5135064;27;20401;-75
2022/04/26 07:38:07;;;;;;;10.07;3.37;;;19.50;49.00;;;;;;5135736;27;20035;-76
2022/04/26 07:40:33;;;;;;;8.77;3.00;;;19.30;48.60;;;;;;5135596;27;20055;-75
2022/04/26 07:43:00;;;;;;;8.43;3.10;;;19.60;49.60;;;;;;5134554;27;20086;-75
2022/04/26 07:45:26;;;;;;;8.37;2.70;;;19.50;47.80;;;;;;5135026;27;20063;-74
2022/04/26 07:47:52;;;;;;;7.60;3.03;;;19.80;49.20;;;;;;5135481;27;20137;-74
2022/04/26 07:50:18;;;;;;;7.13;2.80;;;20.10;49.00;;;;;;5135279;27;20047;-74
2022/04/26 07:52:44;;;;;;;8.00;3.00;;;20.20;48.50;;;;;;5134058;27;20057;-75
2022/04/26 07:55:10;;;;;;;6.90;2.67;;;20.60;48.40;;;;;;5135045;27;20122;-74
2022/04/26 07:57:38;;;;;;;9.30;3.20;;;;;;;;;;5135291;27;20130;-74
2022/04/26 08:00:06;;;;;;;8.27;3.30;;;20.60;46.00;;;;;;5134783;27;20475;-75
2022/04/26 08:02:32;;;;;;;8.47;2.80;;;;;;;;;;5135188;27;20046;-74
2022/04/26 08:05:01;;;;;;;11.30;2.97;;;19.50;45.10;;;;;;5133818;27;20390;-74
2022/04/26 08:07:33;;;;;;;6.30;2.43;;;18.40;47.10;;;;;;5134865;27;20053;-75
2022/04/26 08:09:59;;;;;;;9.10;3.20;;;;;;;;;;5135375;27;20155;-75
2022/04/26 08:12:25;;;;;;;8.70;2.93;;;16.50;83.00;;;;;;5134774;27;20055;-74
2022/04/26 08:14:51;;;;;;;7.20;3.10;;;;;;;;;;5134960;27;20043;-74
2022/04/26 08:17:17;;;;;;;9.13;3.03;;;15.40;87.90;;;;;;5134735;27;20047;-74
2022/04/26 08:19:43;;;;;;;9.37;3.30;;;;;;;;;;5134396;27;20050;-74
2022/04/26 08:22:09;;;;;;;11.30;2.83;;;14.40;91.10;;;;;;5134774;27;20050;-74
2022/04/26 08:27:22;;;;;;;8.13;3.05;;;14.00;64.50;;;;;;5134624;27;20069;-74
2022/04/26 08:29:54;;;;;;;6.73;2.43;;;13.50;59.00;;;;;;5134699;27;20040;-74
2022/04/26 08:32:22;;;;;;;8.17;2.50;;;13.40;60.40;;;;;;5134469;27;20471;-74
2022/04/26 08:34:48;;;;;;;8.87;2.90;;;13.20;61.40;;;;;;5134653;27;20050;-74
2022/04/26 08:37:14;;;;;;;7.93;3.10;;;;;;;;;;5134331;27;20072;-74
2022/04/26 08:39:40;;;;;;;11.87;3.00;;;;;;;;;;5134630;27;20047;-75
2022/04/26 08:42:06;;;;;;;6.47;2.30;;;;;;;;;;5133504;27;20057;-74
2022/04/26 08:44:34;;;;;;;7.57;2.50;;;13.10;93.50;;;;;;5134121;27;20349;-74
2022/04/26 08:52:47;;;;;;;6.20;2.35;;;13.30;64.30;;;;;;5133233;27;20051;-74
2022/04/26 08:55:13;;;;;;;9.93;2.90;;;13.10;65.20;;;;;;5134410;27;20043;-74
2022/04/26 08:57:38;;;;;;;9.53;2.70;;;13.20;65.00;;;;;;5134344;27;20306;-74
2022/04/26 09:00:06;;;;;;;13.47;2.87;;;13.20;65.50;;;;;;5132836;27;20043;-74
2022/04/26 09:02:31;;;;;;;6.50;2.70;;;13.30;66.50;;;;;;5134067;27;20043;-74
2022/04/26 09:05:08;;;;;;;10.10;3.00;;;13.40;66.00;;;;;;5134253;27;20353;-74
2022/04/26 09:07:39;;;;;;;7.67;2.67;;;13.60;84.90;;;;;;5115984;28;20088;-74
2022/04/26 09:10:19;;;;;;;9.80;2.80;;;13.70;84.00;;;;;;5134197;27;20319;-74
2022/04/26 09:13:12;;;;;;;8.67;3.23;;;13.60;83.30;;;;;;5134067;27;20271;-74
2022/04/26 09:15:48;;;;;;;7.10;2.67;;;13.50;83.90;;;;;;5132629;28;20284;-74
2022/04/26 09:18:34;;;;;;;9.10;2.70;;;13.50;83.60;;;;;;5134067;27;20309;-74
2022/04/26 09:21:10;;;;;;;6.90;3.10;;;13.50;83.40;;;;;;5133846;27;20265;-74
2022/04/26 09:23:38;;;;;;;6.27;2.47;;;13.50;84.20;;;;;;5133610;27;20288;-74
2022/04/26 09:26:10;;;;;;;6.47;3.03;;;13.60;87.40;;;;;;5133960;27;20268;-74
2022/04/26 09:28:48;;;;;;;8.27;3.17;;;13.50;86.30;;;;;;5133737;27;20426;-74
2022/04/26 09:31:21;;;;;;;8.90;2.63;;;13.50;86.50;;;;;;5135573;27;20285;-74
2022/04/26 09:33:51;;;;;;;7.97;2.60;;;13.50;85.60;;;;;;5136852;27;20636;-74
2022/04/26 09:36:19;;;;;;;8.93;2.90;;;13.50;86.80;;;;;;5137835;27;20421;-74
2022/04/26 09:38:58;;;;;;;4.80;2.33;;;13.20;84.80;;;;;;5137966;27;20367;-73
2022/04/26 09:41:27;;;;;;;6.63;2.67;;;13.10;62.50;;;;;;5136655;27;20276;-74
2022/04/26 09:43:58;;;;;;;8.37;2.40;;;13.10;63.10;;;;;;5137805;27;20304;-73
2022/04/26 09:46:24;;;;;;;7.03;2.50;;;13.10;62.30;;;;;;5137403;27;20801;-74
2022/04/26 09:48:52;;;;;;;7.97;2.47;;;13.20;61.90;;;;;;5137843;27;20285;-74
2022/04/26 09:51:18;;;;;;;7.90;2.43;;;13.20;62.40;;;;;;5137758;27;20039;-74
2022/04/26 09:53:44;;;;;;;8.73;2.90;;;13.20;62.90;;;;;;5136724;27;20287;-74
2022/04/26 09:56:13;;;;;;;9.47;2.90;;;13.30;62.40;;;;;;5138011;27;20133;-74
2022/04/26 09:58:41;;;;;;;7.67;2.37;;;13.30;62.40;;;;;;5137420;27;20277;-74
2022/04/26 10:01:07;;;;;;;5.73;2.20;;;13.40;63.00;;;;;;5137640;27;20303;-74
2022/04/26 10:03:40;;;;;;;8.87;2.30;;;13.30;62.90;;;;;;5137530;27;20744;-74
2022/04/26 10:06:08;;;;;;;6.33;2.40;;;13.30;62.50;;;;;;5137652;27;20051;-74
2022/04/26 10:08:35;;;;;;;7.77;2.90;;;13.40;79.40;;;;;;5137197;27;20316;-73
2022/04/26 10:11:04;;;;;;;9.33;2.97;;;13.50;62.40;;;;;;5137377;27;20284;-73
2022/04/26 10:13:42;;;;;;;6.77;2.93;;;13.40;61.00;;;;;;5137124;27;20276;-74
2022/04/26 10:16:08;;;;;;;8.43;2.47;;;;;;;;;;5137295;27;20284;-74
2022/04/26 10:18:45;;;;;;;8.77;2.60;;;13.50;94.20;;;;;;5136966;27;20305;-73
2022/04/26 10:21:23;;;;;;;5.27;2.37;;;13.40;75.00;;;;;;5136271;27;20289;-74
2022/04/26 10:23:52;;;;;;;6.67;2.70;;;13.20;62.20;;;;;;5137024;27;20284;-74
2022/04/26 10:26:24;;;;;;;7.10;2.43;;;13.20;61.50;;;;;;5137122;27;20312;-74
2022/04/26 10:28:57;;;;;;;6.70;2.00;;;13.30;61.50;;;;;;5137095;27;20349;-74
2022/04/26 10:31:38;;;;;;;5.77;2.33;;;13.30;63.60;;;;;;5136917;27;20288;-74
2022/04/26 10:34:31;;;;;;;6.80;2.53;;;13.20;61.10;;;;;;5136922;27;20636;-74
2022/04/26 10:37:06;;;;;;;12.33;2.40;;;13.20;61.60;;;;;;5136828;27;20359;-74
2022/04/26 10:39:39;;;;;;;8.05;2.67;;;13.20;62.30;;;;;;5136252;27;20277;-74
2022/04/26 10:42:20;;;;;;;7.80;2.70;;;13.10;62.50;;;;;;5136565;27;20075;-74
2022/04/26 10:44:48;;;;;;;8.40;2.57;;;13.10;63.50;;;;;;5136277;27;20301;-74
2022/04/26 10:47:20;;;;;;;6.53;2.60;;;13.20;63.20;;;;;;5136438;27;20277;-74
2022/04/26 10:49:47;;;;;;;8.27;2.20;;;13.40;66.90;;;;;;5136048;27;20636;-74
2022/04/26 10:52:14;;;;;;;7.63;2.33;;;13.40;65.40;;;;;;5136315;27;20325;-74
2022/04/26 10:54:45;;;;;;;4.83;2.17;;;13.40;64.80;;;;;;5135958;27;20325;-74
2022/04/26 10:57:21;;;;;;;6.87;2.83;;;13.40;66.60;;;;;;5136004;27;20284;-74
2022/04/26 10:59:49;;;;;;;5.33;2.30;;;13.40;65.40;;;;;;5135950;27;20272;-74
2022/04/26 11:02:19;;;;;;;7.87;2.60;;;13.40;64.70;;;;;;5134794;27;20284;-74
2022/04/26 11:04:45;;;;;;;8.10;2.90;;;13.50;66.00;;;;;;5135745;27;20289;-74
2022/04/26 11:07:20;;;;;;;6.37;2.43;;;13.40;66.70;;;;;;5135938;27;20326;-74
2022/04/26 11:09:50;;;;;;;7.60;2.30;;;;;;;;;;5134546;27;20773;-74
2022/04/26 11:12:19;;;;;;;9.50;2.57;;;13.50;92.70;;;;;;5135862;27;20056;-74
2022/04/26 11:14:50;;;;;;;7.33;3.00;;;13.60;76.10;;;;;;5135207;27;20756;-74
2022/04/26 11:17:22;;;;;;;9.23;2.50;;;13.60;75.00;;;;;;5134439;27;20291;-74
2022/04/26 11:19:56;;;;;;;7.17;2.10;;;13.50;60.80;;;;;;5135471;27;20291;-74
2022/04/26 11:22:23;;;;;;;4.65;2.30;;;;;;;;;;5135739;27;20670;-74
2022/04/26 11:30:48;;;;;;;8.10;2.43;;;13.70;92.10;;;;;;5135471;27;20058;-74
2022/04/26 11:33:19;;;;;;;7.07;2.67;;;13.70;90.90;;;;;;5135741;27;20389;-74
2022/04/26 11:35:50;;;;;;;8.60;2.50;;;;;;;;;;5135150;27;20281;-74
2022/04/26 11:38:17;;;;;;;8.40;2.80;;;;;;;;;;5135799;27;20355;-74
2022/04/26 11:40:58;;;;;;;6.20;2.30;;;13.60;92.80;;;;;;5135051;27;20361;-74
2022/04/26 11:43:31;;;;;;;7.37;2.73;;;13.60;92.40;;;;;;5135277;27;20309;-74
2022/04/26 11:45:57;;;;;;;6.27;3.23;;;;;;;;;;5135169;27;20301;-73
2022/04/26 11:48:25;;;;;;;6.27;2.50;;;13.40;58.40;;;;;;5135235;27;20399;-74
2022/04/26 11:50:55;;;;;;;6.83;2.50;;;13.40;59.60;;;;;;5134854;27;20393;-74
2022/04/26 11:53:24;;;;;;;6.77;2.47;;;13.50;59.90;;;;;;5134850;27;20287;-74
2022/04/26 11:56:00;;;;;;;11.20;2.80;;;13.50;59.90;;;;;;5133817;27;20349;-74
2022/04/26 11:58:33;;;;;;;7.97;2.20;;;13.50;59.20;;;;;;5135027;27;20674;-74
2022/04/26 12:01:08;;;;;;;7.00;2.20;;;13.50;59.60;;;;;;5134160;27;20778;-74
2022/04/26 12:03:38;;;;;;;6.72;2.60;;;13.60;58.60;;;;;;5134762;27;20277;-74
2022/04/26 12:06:09;;;;;;;8.20;2.90;;;13.30;57.80;;;;;;5135154;27;20055;-74
2022/04/26 12:08:46;;;;;;;6.73;2.30;;;13.30;59.00;;;;;;5135003;27;20312;-74
2022/04/26 12:11:21;;;;;;;9.03;2.70;;;13.40;60.00;;;;;;5135103;27;20312;-74
2022/04/26 12:14:07;;;;;;;7.80;2.50;;;13.50;60.30;;;;;;5134770;27;20375;-74
2022/04/26 12:16:42;;;;;;;6.50;2.00;;;13.70;58.20;;;;;;5135018;27;20279;-74
2022/04/26 12:19:08;;;;;;;7.00;2.50;;;13.70;58.40;;;;;;5134992;27;20273;-74
2022/04/26 12:21:52;;;;;;;9.40;2.97;;;13.60;58.90;;;;;;5134894;27;20043;-74
2022/04/26 12:24:29;;;;;;;6.53;2.40;;;13.50;59.00;;;;;;5133969;27;20663;-74
2022/04/26 12:26:57;;;;;;;5.93;2.30;;;13.50;59.30;;;;;;5134607;27;20645;-74
2022/04/26 12:29:31;;;;;;;6.30;2.13;;;13.60;59.90;;;;;;5134745;27;20277;-74
2022/04/26 12:31:58;;;;;;;8.43;2.33;;;13.70;58.60;;;;;;5134522;27;20715;-74
2022/04/26 12:34:32;;;;;;;8.20;2.63;;;13.60;58.80;;;;;;5134597;27;20304;-74
2022/04/26 12:37:00;;;;;;;6.90;2.72;;;13.50;58.10;;;;;;5134460;27;20280;-74
2022/04/26 12:39:43;;;;;;;6.50;2.17;;;13.40;58.80;;;;;;5134596;27;20047;-74
2022/04/26 12:42:15;;;;;;;8.27;2.57;;;13.20;58.60;;;;;;5134792;27;20280;-74
2022/04/26 12:45:21;;;;;;;6.10;2.13;;;13.20;59.50;;;;;;5134217;27;20767;-74
2022/04/26 12:50:48;;;;;;;6.60;2.37;;;13.20;58.10;;;;;;5134172;27;20051;-74
2022/04/26 12:53:25;;;;;;;7.93;2.33;;;13.10;58.80;;;;;;5134286;27;20329;-74
2022/04/26 12:55:52;;;;;;;9.70;2.33;;;13.20;59.00;;;;;;5134092;27;20054;-74
2022/04/26 12:58:19;;;;;;;6.20;2.13;;;13.20;59.50;;;;;;5134271;27;20277;-74
2022/04/26 13:00:46;;;;;;;6.43;2.40;;;13.30;59.30;;;;;;5134060;27;20366;-74
2022/04/26 13:03:14;;;;;;;6.70;2.30;;;13.30;58.90;;;;;;5134244;27;20276;-74
2022/04/26 13:05:47;;;;;;;7.13;2.10;;;13.30;58.40;;;;;;5133188;27;20285;-74
2022/04/26 13:08:17;;;;;;;8.60;2.30;;;13.40;59.40;;;;;;5134103;27;20748;-74
2022/04/26 13:10:44;;;;;;;6.93;3.20;;;13.60;88.30;;;;;;5133998;27;20375;-74
2022/04/26 13:13:11;;;;;;;8.13;2.93;;;13.70;90.00;;;;;;5134038;27;20318;-74
2022/04/26 13:15:37;;;;;;;7.10;2.50;;;13.80;90.30;;;;;;5133962;27;20275;-74
2022/04/26 13:18:04;;;;;;;4.43;2.20;;;13.70;59.80;;;;;;5132397;28;20320;-74
2022/04/26 13:20:30;;;;;;;7.50;2.43;;;13.70;59.60;;;;;;5133849;27;20285;-74
2022/04/26 13:22:56;;;;;;;6.27;3.13;;;13.70;59.40;;;;;;5133330;27;20760;-74
2022/04/26 13:25:22;;;;;;;10.00;3.03;;;13.70;59.40;;;;;;5133703;28;20315;-74
2022/04/26 13:27:48;;;;;;;5.93;2.47;;;13.50;59.50;;;;;;5132498;28;20071;-74
2022/04/26 13:30:15;;;;;;;8.87;3.10;;;13.50;59.90;;;;;;5133830;27;20134;-75
2022/04/26 13:32:41;;;;;;;8.27;2.27;;;;;;;;;;5133917;27;20610;-74
2022/04/26 13:35:07;;;;;;;6.23;2.50;;;13.50;60.70;;;;;;5134028;28;20312;-73
2022/04/26 13:37:33;;;;;;;6.13;2.30;;;13.40;61.40;;;;;;5134188;28;20298;-74
2022/04/26 13:40:00;;;;;;;9.17;2.97;;;13.40;62.00;;;;;;5132524;28;20307;-74
2022/04/26 13:42:27;;;;;;;6.47;2.40;;;13.20;61.70;;;;;;5132863;28;20281;-74
2022/04/26 13:44:54;;;;;;;7.27;2.63;;;13.30;61.80;;;;;;5133562;27;20308;-73
2022/04/26 13:47:20;;;;;;;5.30;1.90;;;13.30;61.70;;;;;;5134160;27;20280;-73
2022/04/26 13:49:46;;;;;;;8.10;2.60;;;13.30;61.90;;;;;;5133518;27;20356;-73
2022/04/26 13:52:15;;;;;;;8.30;2.40;;;13.30;61.50;;;;;;5132870;28;20358;-73
2022/04/26 13:54:42;;;;;;;9.73;2.53;;;13.40;60.90;;;;;;5133802;27;20315;-74
2022/04/26 13:57:09;;;;;;;7.63;2.53;;;13.50;59.90;;;;;;5133480;27;20670;-74
2022/04/26 13:59:35;;;;;;;7.67;2.70;;;13.70;60.20;;;;;;5133674;27;20285;-73
2022/04/26 14:02:01;;;;;;;10.73;2.40;;;13.80;59.70;;;;;;5133414;27;20275;-74
2022/04/26 14:04:26;;;;;;;8.70;2.40;;;13.90;59.00;;;;;;5133211;28;20304;-74
2022/04/26 14:06:52;;;;;;;7.63;2.53;;;13.90;58.50;;;;;;5132950;28;20047;-73
2022/04/26 14:09:18;;;;;;;10.07;3.03;;;14.00;59.00;;;;;;5133914;28;20039;-73
2022/04/26 14:11:47;;;;;;;9.30;2.83;;;13.90;59.40;;;;;;5133574;27;20043;-73
2022/04/26 14:22:30;;;;;;;7.27;2.40;;;13.50;59.90;;;;;;5136334;27;20433;-73
2022/04/26 14:24:58;;;;;;;5.97;2.57;;;13.50;60.10;;;;;;5136983;27;20332;-74
2022/04/26 14:27:25;;;;;;;9.40;2.87;;;13.60;61.10;;;;;;5137183;27;20307;-74
2022/04/26 14:29:50;;;;;;;5.97;2.23;;;13.70;61.10;;;;;;5136983;27;20326;-73
2022/04/26 14:32:16;;;;;;;10.13;3.10;;;13.70;60.90;;;;;;5136756;27;20285;-73
2022/04/26 14:34:43;;;;;;;6.73;2.67;;;13.70;61.20;;;;;;5137086;27;20039;-73
2022/04/26 14:37:09;;;;;;;9.03;2.60;;;13.80;61.40;;;;;;5136742;27;20050;-73
2022/04/26 14:39:36;;;;;;;7.70;2.20;;;13.70;59.40;;;;;;5136948;27;20277;-73
2022/04/26 14:42:02;;;;;;;8.20;2.93;;;13.70;60.00;;;;;;5136649;27;20318;-73
2022/04/26 14:44:28;;;;;;;7.93;2.30;;;13.70;59.00;;;;;;5136779;27;20300;-73
2022/04/26 14:46:54;;;;;;;5.97;2.50;;;13.60;59.30;;;;;;5136243;27;20293;-73
2022/04/26 14:49:20;;;;;;;5.77;2.30;;;13.50;59.50;;;;;;5136695;27;20051;-73
2022/04/26 14:51:46;;;;;;;6.20;2.40;;;13.50;60.00;;;;;;5136638;27;20043;-73
2022/04/26 14:54:12;;;;;;;8.50;2.53;;;13.40;59.80;;;;;;5136396;27;20039;-73
2022/04/26 14:56:38;;;;;;;6.53;2.17;;;13.40;60.20;;;;;;5136626;27;20394;-73
2022/04/26 14:59:06;;;;;;;6.50;2.60;;;13.30;59.90;;;;;;5135056;27;20285;-73
2022/04/26 15:01:32;;;;;;;6.93;2.60;;;13.10;60.30;;;;;;5136189;27;20491;-74
2022/04/26 15:03:57;;;;;;;6.83;2.50;;;13.10;61.10;;;;;;5136086;27;20280;-73
2022/04/26 15:06:23;;;;;;;5.73;2.57;;;13.20;61.60;;;;;;5136591;27;20394;-73
2022/04/26 15:11:34;;;;;;;6.77;2.70;;;13.10;61.50;;;;;;5136436;27;20140;-73
2022/04/26 15:16:46;;;;;;;5.23;2.30;;;;;;;;;;5136116;27;20284;-73
2022/04/26 15:19:14;;;;;;;7.33;2.57;;;13.40;61.10;;;;;;5135458;27;20764;-74
2022/04/26 15:21:42;;;;;;;8.20;3.40;;;13.40;61.00;;;;;;5136117;27;20355;-73
2022/04/26 15:24:08;;;;;;;6.00;2.43;;;13.40;60.30;;;;;;5135731;27;20292;-73
2022/04/26 15:26:34;;;;;;;8.37;3.33;;;13.40;60.70;;;;;;5135995;27;20273;-73
2022/04/26 15:29:00;;;;;;;7.87;2.50;;;13.40;60.90;;;;;;5133585;27;20317;-73
2022/04/26 15:31:26;;;;;;;6.17;2.53;;;13.30;60.30;;;;;;5135834;27;20436;-73
2022/04/26 15:33:52;;;;;;;7.33;2.50;;;13.40;60.50;;;;;;5135793;27;20058;-73
2022/04/26 15:36:19;;;;;;;8.23;2.90;;;;;;;;;;5135038;27;20578;-73
2022/04/26 15:38:45;;;;;;;8.87;2.40;;;;;;;;;;5134233;27;20280;-73
2022/04/26 15:41:12;;;;;;;6.20;2.10;;;;;;;;;;5135415;27;20292;-73
2022/04/26 15:43:38;;;;;;;9.33;2.83;;;;;;;;;;5135471;27;20363;-73
2022/04/26 15:46:06;;;;;;;6.07;2.63;;;;;;;;;;5135077;27;20331;-73
2022/04/26 15:48:37;;;;;;;6.43;2.37;;;;;;;;;;5135155;27;20273;-73
2022/04/26 15:51:03;;;;;;;5.33;1.97;;;;;;;;;;5135114;27;20286;-73
2022/04/26 15:53:29;;;;;;;7.43;2.03;;;;;;;;;;5135216;27;20302;-73
2022/04/26 15:55:55;;;;;;;5.83;2.70;;;;;;;;;;5135082;27;20337;-74
2022/04/26 15:58:21;;;;;;;9.53;2.70;;;13.20;88.90;;;;;;5135011;27;20269;-73
2022/04/26 16:00:47;;;;;;;5.13;2.10;;;13.10;58.60;;;;;;5135042;27;20280;-73
2022/04/26 16:03:13;;;;;;;6.50;2.67;;;13.00;58.80;;;;;;5134750;27;20050;-73
2022/04/26 16:05:40;;;;;;;8.07;2.43;;;12.90;58.80;;;;;;5134882;27;20051;-73
2022/04/26 16:08:07;;;;;;;6.37;2.40;;;12.90;58.50;;;;;;5134899;27;20054;-73
2022/04/26 16:21:30;;;;;;;7.23;2.40;;;13.00;58.30;;;;;;5134524;27;20276;-70
2022/04/26 16:23:57;;;;;;;9.07;2.50;;;12.90;57.90;;;;;;5133424;27;20277;-69
2022/04/26 16:26:24;;;;;;;7.93;2.30;;;13.00;58.90;;;;;;5134083;27;20850;-71
2022/04/26 16:28:54;;;;;;;7.33;2.47;;;12.90;58.40;;;;;;5134544;27;20763;-74
2022/04/26 16:31:27;;;;;;;6.60;2.33;;;12.90;58.70;;;;;;5134208;27;20616;-70
2022/04/26 16:33:57;;;;;;;6.57;2.00;;;12.70;58.00;;;;;;5134292;27;20280;-68
2022/04/26 16:36:25;;;;;;;5.60;1.97;;;12.70;59.30;;;;;;5132976;27;20277;-69
2022/04/26 16:38:54;;;;;;;7.53;2.50;;;12.50;58.60;;;;;;5134409;27;20268;-71
2022/04/26 16:41:20;;;;;;;7.23;2.20;;;12.50;58.70;;;;;;5134098;27;20333;-72
2022/04/26 16:43:47;;;;;;;6.60;2.50;;;12.40;59.20;;;;;;5134370;27;20273;-71
2022/04/26 16:46:19;;;;;;;7.00;1.90;;;12.30;59.50;;;;;;5133791;27;20293;-71
2022/04/26 16:48:48;;;;;;;7.33;2.47;;;12.30;59.60;;;;;;5134033;27;20843;-72
2022/04/26 16:51:19;;;;;;;6.63;2.20;;;12.30;59.40;;;;;;5133741;27;20741;-73
2022/04/26 16:53:44;;;;;;;7.63;2.23;;;12.20;59.60;;;;;;5134354;27;20277;-72
2022/04/26 16:56:10;;;;;;;6.47;1.80;;;12.10;60.50;;;;;;5133666;27;20356;-72
2022/04/26 16:58:36;;;;;;;8.10;2.00;;;12.20;60.40;;;;;;5134055;27;20513;-71
2022/04/26 17:01:02;;;;;;;8.60;2.23;;;12.10;59.90;;;;;;5134053;27;20096;-72
2022/04/26 17:03:28;;;;;;;7.73;2.20;;;12.00;59.90;;;;;;5133687;27;20053;-72
2022/04/26 17:05:54;;;;;;;5.63;1.97;;;12.00;60.50;;;;;;5134083;27;20297;-72
2022/04/26 17:08:20;;;;;;;7.43;2.50;;;12.00;61.00;;;;;;5133655;27;20047;-72
2022/04/26 17:10:47;;;;;;;5.90;2.37;;;12.00;61.10;;;;;;5133942;27;20051;-72
2022/04/26 17:13:14;;;;;;;7.10;2.40;;;11.90;61.80;;;;;;5133705;27;20039;-73
2022/04/26 17:15:40;;;;;;;6.80;2.30;;;11.90;61.80;;;;;;5134098;27;20272;-69
2022/04/26 17:18:06;;;;;;;6.30;2.20;;;11.80;62.40;;;;;;5133834;27;20768;-69
2022/04/26 17:20:35;;;;;;;5.27;2.20;;;11.80;62.50;;;;;;5133626;27;20047;-69
2022/04/26 17:23:03;;;;;;;6.40;2.47;;;11.70;62.90;;;;;;5133968;27;20617;-69
2022/04/26 17:25:29;;;;;;;8.93;2.27;;;11.60;64.00;;;;;;5132407;28;20380;-71